sensor_id;sensor_type;location;lat;lon;timestamp;P1;durP1;ratioP1;P2;durP2;ratioP2
70183;SDS011;57554;51.546;6.776;2022-08-26T00:00:43;14.23;;;8.00;;
70183;SDS011;57554;51.546;6.776;2022-08-26T00:03:10;13.13;;;7.40;;
70183;SDS011;57554;51.546;6.776;2022-08-26T00:05:37;19.70;;;8.60;;
70183;SDS011;57554;51.546;6.776;2022-08-26T00:08:03;13.48;;;7.95;;
70183;SDS011;57554;51.546;6.776;2022-08-26T00:10:29;13.38;;;8.52;;
70183;SDS011;57554;51.546;6.776;2022-08-26T00:12:55;12.20;;;7.68;;
70183;SDS011;57554;51.546;6.776;2022-08-26T00:15:21;14.55;;;8.52;;
70183;SDS011;57554;51.546;6.776;2022-08-26T00:17:47;15.27;;;9.25;;
70183;SDS011;57554;51.546;6.776;2022-08-26T00:20:15;17.20;;;9.80;;
70183;SDS011;57554;51.546;6.776;2022-08-26T00:22:42;17.20;;;12.20;;
70183;SDS011;57554;51.546;6.776;2022-08-26T00:25:08;20.80;;;13.90;;
70183;SDS011;57554;51.546;6.776;2022-08-26T00:27:36;19.92;;;13.68;;
70183;SDS011;57554;51.546;6.776;2022-08-26T00:30:03;17.15;;;12.77;;
70183;SDS011;57554;51.546;6.776;2022-08-26T00:32:30;22.10;;;14.48;;
70183;SDS011;57554;51.546;6.776;2022-08-26T00:34:56;25.17;;;19.33;;
70183;SDS011;57554;51.546;6.776;2022-08-26T00:37:21;25.23;;;18.38;;
70183;SDS011;57554;51.546;6.776;2022-08-26T00:39:47;27.27;;;21.20;;
70183;SDS011;57554;51.546;6.776;2022-08-26T00:42:12;29.95;;;21.02;;
70183;SDS011;57554;51.546;6.776;2022-08-26T00:44:38;30.67;;;22.05;;
70183;SDS011;57554;51.546;6.776;2022-08-26T00:47:05;30.85;;;23.00;;
70183;SDS011;57554;51.546;6.776;2022-08-26T00:49:39;25.17;;;18.88;;
70183;SDS011;57554;51.546;6.776;2022-08-26T00:52:08;30.30;;;23.35;;
70183;SDS011;57554;51.546;6.776;2022-08-26T00:54:39;32.45;;;23.02;;
70183;SDS011;57554;51.546;6.776;2022-08-26T00:57:11;30.00;;;22.45;;
70183;SDS011;57554;51.546;6.776;2022-08-26T00:59:40;31.55;;;24.13;;
70183;SDS011;57554;51.546;6.776;2022-08-26T01:02:07;35.30;;;26.25;;
70183;SDS011;57554;51.546;6.776;2022-08-26T01:04:33;40.08;;;29.42;;
70183;SDS011;57554;51.546;6.776;2022-08-26T01:07:01;45.38;;;33.05;;
70183;SDS011;57554;51.546;6.776;2022-08-26T01:09:28;37.72;;;28.63;;
70183;SDS011;57554;51.546;6.776;2022-08-26T01:11:55;36.78;;;29.20;;
70183;SDS011;57554;51.546;6.776;2022-08-26T01:14:23;41.17;;;31.42;;
70183;SDS011;57554;51.546;6.776;2022-08-26T01:16:50;45.47;;;33.72;;
70183;SDS011;57554;51.546;6.776;2022-08-26T01:19:21;40.38;;;29.83;;
70183;SDS011;57554;51.546;6.776;2022-08-26T01:22:01;38.95;;;30.67;;
70183;SDS011;57554;51.546;6.776;2022-08-26T01:24:31;43.42;;;33.00;;
70183;SDS011;57554;51.546;6.776;2022-08-26T01:27:02;46.38;;;36.28;;
70183;SDS011;57554;51.546;6.776;2022-08-26T01:29:31;39.60;;;31.77;;
70183;SDS011;57554;51.546;6.776;2022-08-26T01:32:00;48.85;;;37.03;;
70183;SDS011;57554;51.546;6.776;2022-08-26T01:34:28;45.67;;;35.05;;
70183;SDS011;57554;51.546;6.776;2022-08-26T01:37:03;54.42;;;42.20;;
70183;SDS011;57554;51.546;6.776;2022-08-26T01:39:31;53.67;;;40.10;;
70183;SDS011;57554;51.546;6.776;2022-08-26T01:41:58;43.95;;;36.17;;
70183;SDS011;57554;51.546;6.776;2022-08-26T01:44:27;51.13;;;37.45;;
70183;SDS011;57554;51.546;6.776;2022-08-26T01:46:56;52.10;;;40.15;;
70183;SDS011;57554;51.546;6.776;2022-08-26T01:49:24;43.20;;;34.85;;
70183;SDS011;57554;51.546;6.776;2022-08-26T01:51:50;51.38;;;40.05;;
70183;SDS011;57554;51.546;6.776;2022-08-26T01:54:18;54.85;;;38.38;;
70183;SDS011;57554;51.546;6.776;2022-08-26T01:56:45;52.15;;;39.15;;
70183;SDS011;57554;51.546;6.776;2022-08-26T01:59:12;54.78;;;39.83;;
70183;SDS011;57554;51.546;6.776;2022-08-26T02:01:40;51.65;;;38.83;;
70183;SDS011;57554;51.546;6.776;2022-08-26T02:04:20;55.95;;;38.83;;
70183;SDS011;57554;51.546;6.776;2022-08-26T02:06:54;55.22;;;41.20;;
70183;SDS011;57554;51.546;6.776;2022-08-26T02:09:21;60.92;;;44.53;;
70183;SDS011;57554;51.546;6.776;2022-08-26T02:11:47;43.75;;;33.70;;
70183;SDS011;57554;51.546;6.776;2022-08-26T02:14:21;60.65;;;43.33;;
70183;SDS011;57554;51.546;6.776;2022-08-26T02:16:50;53.83;;;41.17;;
70183;SDS011;57554;51.546;6.776;2022-08-26T02:19:21;58.15;;;44.35;;
70183;SDS011;57554;51.546;6.776;2022-08-26T02:21:50;52.88;;;41.28;;
70183;SDS011;57554;51.546;6.776;2022-08-26T02:24:24;52.20;;;39.22;;
70183;SDS011;57554;51.546;6.776;2022-08-26T02:26:52;60.10;;;45.85;;
70183;SDS011;57554;51.546;6.776;2022-08-26T02:31:59;53.75;;;41.08;;
70183;SDS011;57554;51.546;6.776;2022-08-26T02:34:29;52.40;;;39.58;;
70183;SDS011;57554;51.546;6.776;2022-08-26T02:36:57;54.53;;;40.92;;
70183;SDS011;57554;51.546;6.776;2022-08-26T02:39:24;50.67;;;39.65;;
70183;SDS011;57554;51.546;6.776;2022-08-26T02:41:49;49.30;;;40.17;;
70183;SDS011;57554;51.546;6.776;2022-08-26T02:44:15;55.65;;;41.90;;
70183;SDS011;57554;51.546;6.776;2022-08-26T02:46:41;54.13;;;40.80;;
70183;SDS011;57554;51.546;6.776;2022-08-26T02:49:07;54.08;;;39.80;;
70183;SDS011;57554;51.546;6.776;2022-08-26T02:51:32;51.33;;;37.22;;
70183;SDS011;57554;51.546;6.776;2022-08-26T02:53:58;58.13;;;42.00;;
70183;SDS011;57554;51.546;6.776;2022-08-26T02:56:23;59.08;;;41.40;;
70183;SDS011;57554;51.546;6.776;2022-08-26T02:58:49;51.30;;;37.17;;
70183;SDS011;57554;51.546;6.776;2022-08-26T03:01:22;59.03;;;41.83;;
70183;SDS011;57554;51.546;6.776;2022-08-26T03:03:53;49.88;;;36.28;;
70183;SDS011;57554;51.546;6.776;2022-08-26T03:06:19;50.22;;;35.72;;
70183;SDS011;57554;51.546;6.776;2022-08-26T03:08:45;51.58;;;37.58;;
70183;SDS011;57554;51.546;6.776;2022-08-26T03:11:11;52.28;;;38.40;;
70183;SDS011;57554;51.546;6.776;2022-08-26T03:13:37;51.58;;;35.55;;
70183;SDS011;57554;51.546;6.776;2022-08-26T03:16:04;49.00;;;36.22;;
70183;SDS011;57554;51.546;6.776;2022-08-26T03:18:30;45.00;;;31.42;;
70183;SDS011;57554;51.546;6.776;2022-08-26T03:20:55;47.42;;;33.55;;
70183;SDS011;57554;51.546;6.776;2022-08-26T03:23:21;51.33;;;35.97;;
70183;SDS011;57554;51.546;6.776;2022-08-26T03:25:48;41.90;;;31.00;;
70183;SDS011;57554;51.546;6.776;2022-08-26T03:28:15;44.35;;;33.10;;
70183;SDS011;57554;51.546;6.776;2022-08-26T03:30:40;48.47;;;34.90;;
70183;SDS011;57554;51.546;6.776;2022-08-26T03:33:07;49.97;;;34.42;;
70183;SDS011;57554;51.546;6.776;2022-08-26T03:35:35;36.25;;;27.10;;
70183;SDS011;57554;51.546;6.776;2022-08-26T03:38:01;48.53;;;35.80;;
70183;SDS011;57554;51.546;6.776;2022-08-26T03:40:28;38.67;;;29.40;;
70183;SDS011;57554;51.546;6.776;2022-08-26T03:42:57;45.13;;;30.65;;
70183;SDS011;57554;51.546;6.776;2022-08-26T03:45:24;41.85;;;30.92;;
70183;SDS011;57554;51.546;6.776;2022-08-26T03:47:49;47.10;;;33.13;;
70183;SDS011;57554;51.546;6.776;2022-08-26T03:50:16;47.15;;;33.75;;
70183;SDS011;57554;51.546;6.776;2022-08-26T03:52:43;48.38;;;33.17;;
70183;SDS011;57554;51.546;6.776;2022-08-26T03:55:11;47.28;;;33.90;;
70183;SDS011;57554;51.546;6.776;2022-08-26T03:57:37;48.30;;;34.55;;
70183;SDS011;57554;51.546;6.776;2022-08-26T04:00:04;53.22;;;34.47;;
70183;SDS011;57554;51.546;6.776;2022-08-26T04:02:32;39.67;;;29.42;;
70183;SDS011;57554;51.546;6.776;2022-08-26T04:04:57;45.92;;;32.55;;
70183;SDS011;57554;51.546;6.776;2022-08-26T04:07:23;43.42;;;31.50;;
70183;SDS011;57554;51.546;6.776;2022-08-26T04:09:52;42.08;;;30.60;;
70183;SDS011;57554;51.546;6.776;2022-08-26T04:12:22;40.53;;;27.55;;
70183;SDS011;57554;51.546;6.776;2022-08-26T04:14:49;42.20;;;30.55;;
70183;SDS011;57554;51.546;6.776;2022-08-26T04:17:16;43.67;;;30.38;;
70183;SDS011;57554;51.546;6.776;2022-08-26T04:19:42;42.13;;;31.40;;
70183;SDS011;57554;51.546;6.776;2022-08-26T04:22:08;38.55;;;27.77;;
70183;SDS011;57554;51.546;6.776;2022-08-26T04:24:34;41.00;;;28.50;;
70183;SDS011;57554;51.546;6.776;2022-08-26T04:27:00;39.45;;;26.08;;
70183;SDS011;57554;51.546;6.776;2022-08-26T04:29:27;44.65;;;28.98;;
70183;SDS011;57554;51.546;6.776;2022-08-26T04:31:54;44.47;;;30.73;;
70183;SDS011;57554;51.546;6.776;2022-08-26T04:34:20;39.95;;;28.55;;
70183;SDS011;57554;51.546;6.776;2022-08-26T04:36:47;40.35;;;28.15;;
70183;SDS011;57554;51.546;6.776;2022-08-26T04:39:13;38.80;;;26.75;;
70183;SDS011;57554;51.546;6.776;2022-08-26T04:41:42;39.45;;;28.90;;
70183;SDS011;57554;51.546;6.776;2022-08-26T04:44:08;40.45;;;28.45;;
70183;SDS011;57554;51.546;6.776;2022-08-26T04:46:34;42.00;;;25.85;;
70183;SDS011;57554;51.546;6.776;2022-08-26T04:49:01;39.92;;;29.05;;
70183;SDS011;57554;51.546;6.776;2022-08-26T04:51:27;41.70;;;29.20;;
70183;SDS011;57554;51.546;6.776;2022-08-26T04:53:53;50.17;;;29.27;;
70183;SDS011;57554;51.546;6.776;2022-08-26T04:56:20;38.90;;;27.48;;
70183;SDS011;57554;51.546;6.776;2022-08-26T04:58:47;38.85;;;27.65;;
70183;SDS011;57554;51.546;6.776;2022-08-26T05:01:13;42.08;;;27.98;;
70183;SDS011;57554;51.546;6.776;2022-08-26T05:03:39;36.95;;;24.00;;
70183;SDS011;57554;51.546;6.776;2022-08-26T05:06:04;35.35;;;26.33;;
70183;SDS011;57554;51.546;6.776;2022-08-26T05:08:30;34.78;;;26.27;;
70183;SDS011;57554;51.546;6.776;2022-08-26T05:10:56;35.38;;;24.00;;
70183;SDS011;57554;51.546;6.776;2022-08-26T05:13:24;36.13;;;25.05;;
70183;SDS011;57554;51.546;6.776;2022-08-26T05:15:51;37.08;;;22.88;;
70183;SDS011;57554;51.546;6.776;2022-08-26T05:18:18;37.05;;;22.90;;
70183;SDS011;57554;51.546;6.776;2022-08-26T05:20:46;34.47;;;25.27;;
70183;SDS011;57554;51.546;6.776;2022-08-26T05:23:14;33.97;;;23.52;;
70183;SDS011;57554;51.546;6.776;2022-08-26T05:25:41;39.00;;;24.63;;
70183;SDS011;57554;51.546;6.776;2022-08-26T05:28:09;31.65;;;21.70;;
70183;SDS011;57554;51.546;6.776;2022-08-26T05:30:36;33.03;;;22.63;;
70183;SDS011;57554;51.546;6.776;2022-08-26T05:33:03;32.80;;;23.17;;
70183;SDS011;57554;51.546;6.776;2022-08-26T05:35:29;30.40;;;22.30;;
70183;SDS011;57554;51.546;6.776;2022-08-26T05:37:57;35.22;;;24.05;;
70183;SDS011;57554;51.546;6.776;2022-08-26T05:40:28;31.02;;;21.13;;
70183;SDS011;57554;51.546;6.776;2022-08-26T05:42:57;36.83;;;23.48;;
70183;SDS011;57554;51.546;6.776;2022-08-26T05:45:24;33.58;;;24.00;;
70183;SDS011;57554;51.546;6.776;2022-08-26T05:47:50;30.05;;;19.83;;
70183;SDS011;57554;51.546;6.776;2022-08-26T05:50:16;31.48;;;22.13;;
70183;SDS011;57554;51.546;6.776;2022-08-26T05:52:45;34.65;;;21.35;;
70183;SDS011;57554;51.546;6.776;2022-08-26T05:55:14;31.65;;;20.10;;
70183;SDS011;57554;51.546;6.776;2022-08-26T05:57:41;35.40;;;21.92;;
70183;SDS011;57554;51.546;6.776;2022-08-26T06:00:07;31.98;;;21.77;;
70183;SDS011;57554;51.546;6.776;2022-08-26T06:02:33;32.30;;;20.15;;
70183;SDS011;57554;51.546;6.776;2022-08-26T06:04:59;33.10;;;20.85;;
70183;SDS011;57554;51.546;6.776;2022-08-26T06:07:25;33.38;;;23.20;;
70183;SDS011;57554;51.546;6.776;2022-08-26T06:10:11;34.65;;;22.15;;
70183;SDS011;57554;51.546;6.776;2022-08-26T06:12:37;30.00;;;18.23;;
70183;SDS011;57554;51.546;6.776;2022-08-26T06:15:04;28.75;;;18.38;;
70183;SDS011;57554;51.546;6.776;2022-08-26T06:17:30;30.35;;;20.80;;
70183;SDS011;57554;51.546;6.776;2022-08-26T06:19:56;28.42;;;18.92;;
70183;SDS011;57554;51.546;6.776;2022-08-26T06:22:22;30.13;;;19.48;;
70183;SDS011;57554;51.546;6.776;2022-08-26T06:25:07;25.77;;;17.20;;
70183;SDS011;57554;51.546;6.776;2022-08-26T06:27:51;25.80;;;16.85;;
70183;SDS011;57554;51.546;6.776;2022-08-26T06:30:18;28.17;;;20.58;;
70183;SDS011;57554;51.546;6.776;2022-08-26T06:32:43;30.05;;;19.40;;
70183;SDS011;57554;51.546;6.776;2022-08-26T06:35:09;27.73;;;16.30;;
70183;SDS011;57554;51.546;6.776;2022-08-26T06:37:35;33.08;;;22.45;;
70183;SDS011;57554;51.546;6.776;2022-08-26T06:40:02;34.55;;;21.55;;
70183;SDS011;57554;51.546;6.776;2022-08-26T06:42:28;28.13;;;19.13;;
70183;SDS011;57554;51.546;6.776;2022-08-26T06:44:54;27.10;;;18.63;;
70183;SDS011;57554;51.546;6.776;2022-08-26T06:47:19;26.13;;;19.00;;
70183;SDS011;57554;51.546;6.776;2022-08-26T06:49:45;27.15;;;16.42;;
70183;SDS011;57554;51.546;6.776;2022-08-26T06:52:11;27.85;;;18.65;;
70183;SDS011;57554;51.546;6.776;2022-08-26T06:54:37;24.40;;;16.25;;
70183;SDS011;57554;51.546;6.776;2022-08-26T06:57:05;26.33;;;17.73;;
70183;SDS011;57554;51.546;6.776;2022-08-26T06:59:31;27.00;;;18.00;;
70183;SDS011;57554;51.546;6.776;2022-08-26T07:01:56;23.00;;;15.77;;
70183;SDS011;57554;51.546;6.776;2022-08-26T07:04:22;25.75;;;16.65;;
70183;SDS011;57554;51.546;6.776;2022-08-26T07:06:49;27.52;;;16.58;;
70183;SDS011;57554;51.546;6.776;2022-08-26T07:09:15;21.92;;;16.52;;
70183;SDS011;57554;51.546;6.776;2022-08-26T07:11:41;23.88;;;15.88;;
70183;SDS011;57554;51.546;6.776;2022-08-26T07:14:08;25.25;;;16.95;;
70183;SDS011;57554;51.546;6.776;2022-08-26T07:16:34;28.08;;;17.83;;
70183;SDS011;57554;51.546;6.776;2022-08-26T07:19:00;25.00;;;15.98;;
70183;SDS011;57554;51.546;6.776;2022-08-26T07:21:26;21.25;;;14.43;;
70183;SDS011;57554;51.546;6.776;2022-08-26T07:23:52;23.20;;;16.48;;
70183;SDS011;57554;51.546;6.776;2022-08-26T07:26:19;21.08;;;13.73;;
70183;SDS011;57554;51.546;6.776;2022-08-26T07:28:48;27.23;;;14.93;;
70183;SDS011;57554;51.546;6.776;2022-08-26T07:31:16;29.08;;;14.05;;
70183;SDS011;57554;51.546;6.776;2022-08-26T07:33:43;19.05;;;13.70;;
70183;SDS011;57554;51.546;6.776;2022-08-26T07:36:09;19.60;;;12.73;;
70183;SDS011;57554;51.546;6.776;2022-08-26T07:38:36;19.00;;;12.13;;
70183;SDS011;57554;51.546;6.776;2022-08-26T07:41:03;20.20;;;12.70;;
70183;SDS011;57554;51.546;6.776;2022-08-26T07:43:29;15.05;;;10.48;;
70183;SDS011;57554;51.546;6.776;2022-08-26T07:45:55;20.23;;;11.52;;
70183;SDS011;57554;51.546;6.776;2022-08-26T07:48:21;20.08;;;12.48;;
70183;SDS011;57554;51.546;6.776;2022-08-26T07:50:47;19.13;;;11.48;;
70183;SDS011;57554;51.546;6.776;2022-08-26T07:53:13;16.80;;;9.80;;
70183;SDS011;57554;51.546;6.776;2022-08-26T07:55:39;20.33;;;12.30;;
70183;SDS011;57554;51.546;6.776;2022-08-26T07:58:04;16.98;;;10.20;;
70183;SDS011;57554;51.546;6.776;2022-08-26T08:00:30;15.80;;;10.35;;
70183;SDS011;57554;51.546;6.776;2022-08-26T08:02:58;22.52;;;11.07;;
70183;SDS011;57554;51.546;6.776;2022-08-26T08:05:24;15.63;;;10.10;;
70183;SDS011;57554;51.546;6.776;2022-08-26T08:07:50;13.98;;;9.02;;
70183;SDS011;57554;51.546;6.776;2022-08-26T08:10:21;15.13;;;7.35;;
70183;SDS011;57554;51.546;6.776;2022-08-26T08:12:48;15.85;;;7.38;;
70183;SDS011;57554;51.546;6.776;2022-08-26T08:15:15;12.45;;;6.72;;
70183;SDS011;57554;51.546;6.776;2022-08-26T08:17:44;12.73;;;7.07;;
70183;SDS011;57554;51.546;6.776;2022-08-26T08:20:10;13.02;;;6.80;;
70183;SDS011;57554;51.546;6.776;2022-08-26T08:22:37;13.98;;;7.03;;
70183;SDS011;57554;51.546;6.776;2022-08-26T08:25:03;13.38;;;7.00;;
70183;SDS011;57554;51.546;6.776;2022-08-26T08:27:31;13.63;;;7.38;;
70183;SDS011;57554;51.546;6.776;2022-08-26T08:29:59;11.82;;;6.75;;
70183;SDS011;57554;51.546;6.776;2022-08-26T08:32:25;10.15;;;6.57;;
70183;SDS011;57554;51.546;6.776;2022-08-26T08:34:51;14.85;;;6.47;;
70183;SDS011;57554;51.546;6.776;2022-08-26T08:37:17;15.68;;;7.03;;
70183;SDS011;57554;51.546;6.776;2022-08-26T08:39:43;11.48;;;5.85;;
70183;SDS011;57554;51.546;6.776;2022-08-26T08:42:13;11.50;;;6.13;;
70183;SDS011;57554;51.546;6.776;2022-08-26T08:45:13;10.90;;;6.10;;
70183;SDS011;57554;51.546;6.776;2022-08-26T08:48:03;14.77;;;7.18;;
70183;SDS011;57554;51.546;6.776;2022-08-26T08:50:39;12.43;;;6.15;;
70183;SDS011;57554;51.546;6.776;2022-08-26T09:01:03;13.20;;;6.15;;
70183;SDS011;57554;51.546;6.776;2022-08-26T09:06:19;11.15;;;5.47;;
70183;SDS011;57554;51.546;6.776;2022-08-26T09:08:46;14.30;;;5.63;;
70183;SDS011;57554;51.546;6.776;2022-08-26T09:11:13;13.43;;;4.95;;
70183;SDS011;57554;51.546;6.776;2022-08-26T09:13:45;10.38;;;5.43;;
70183;SDS011;57554;51.546;6.776;2022-08-26T09:16:16;12.40;;;4.90;;
70183;SDS011;57554;51.546;6.776;2022-08-26T09:21:23;10.43;;;5.22;;
70183;SDS011;57554;51.546;6.776;2022-08-26T09:23:49;13.70;;;5.07;;
70183;SDS011;57554;51.546;6.776;2022-08-26T09:26:18;13.25;;;5.20;;
70183;SDS011;57554;51.546;6.776;2022-08-26T09:28:47;12.40;;;5.45;;
70183;SDS011;57554;51.546;6.776;2022-08-26T09:33:46;12.75;;;4.68;;
70183;SDS011;57554;51.546;6.776;2022-08-26T09:38:40;13.98;;;4.43;;
70183;SDS011;57554;51.546;6.776;2022-08-26T09:41:16;16.45;;;4.97;;
70183;SDS011;57554;51.546;6.776;2022-08-26T09:52:07;13.35;;;3.67;;
70183;SDS011;57554;51.546;6.776;2022-08-26T09:54:34;11.00;;;3.58;;
70183;SDS011;57554;51.546;6.776;2022-08-26T09:59:51;13.65;;;4.57;;
70183;SDS011;57554;51.546;6.776;2022-08-26T10:04:58;11.85;;;4.57;;
70183;SDS011;57554;51.546;6.776;2022-08-26T10:10:06;11.10;;;4.30;;
70183;SDS011;57554;51.546;6.776;2022-08-26T10:12:49;10.60;;;4.05;;
70183;SDS011;57554;51.546;6.776;2022-08-26T10:15:22;9.20;;;4.60;;
70183;SDS011;57554;51.546;6.776;2022-08-26T10:20:35;11.15;;;4.57;;
70183;SDS011;57554;51.546;6.776;2022-08-26T10:23:06;11.70;;;4.40;;
70183;SDS011;57554;51.546;6.776;2022-08-26T10:25:36;10.88;;;4.57;;
70183;SDS011;57554;51.546;6.776;2022-08-26T10:33:37;10.77;;;4.47;;
70183;SDS011;57554;51.546;6.776;2022-08-26T10:36:04;13.60;;;4.70;;
70183;SDS011;57554;51.546;6.776;2022-08-26T10:38:55;8.93;;;4.55;;
70183;SDS011;57554;51.546;6.776;2022-08-26T10:41:25;10.75;;;4.60;;
70183;SDS011;57554;51.546;6.776;2022-08-26T10:43:58;12.30;;;5.45;;
70183;SDS011;57554;51.546;6.776;2022-08-26T10:46:35;13.15;;;5.18;;
70183;SDS011;57554;51.546;6.776;2022-08-26T10:49:05;12.77;;;5.47;;
70183;SDS011;57554;51.546;6.776;2022-08-26T10:51:35;9.85;;;4.82;;
70183;SDS011;57554;51.546;6.776;2022-08-26T10:54:08;11.05;;;5.32;;
70183;SDS011;57554;51.546;6.776;2022-08-26T11:02:30;12.98;;;5.32;;
70183;SDS011;57554;51.546;6.776;2022-08-26T11:05:04;11.50;;;5.10;;
70183;SDS011;57554;51.546;6.776;2022-08-26T11:07:42;17.63;;;5.13;;
70183;SDS011;57554;51.546;6.776;2022-08-26T11:17:56;9.38;;;3.38;;
70183;SDS011;57554;51.546;6.776;2022-08-26T11:28:38;9.73;;;3.55;;
70183;SDS011;57554;51.546;6.776;2022-08-26T11:36:08;10.07;;;3.00;;
70183;SDS011;57554;51.546;6.776;2022-08-26T11:38:35;10.38;;;3.15;;
70183;SDS011;57554;51.546;6.776;2022-08-26T11:41:10;9.77;;;3.28;;
70183;SDS011;57554;51.546;6.776;2022-08-26T11:43:41;10.00;;;3.47;;
70183;SDS011;57554;51.546;6.776;2022-08-26T11:46:10;11.70;;;3.80;;
70183;SDS011;57554;51.546;6.776;2022-08-26T11:48:37;12.20;;;3.45;;
70183;SDS011;57554;51.546;6.776;2022-08-26T11:53:36;8.93;;;3.47;;
70183;SDS011;57554;51.546;6.776;2022-08-26T11:56:08;10.15;;;4.22;;
70183;SDS011;57554;51.546;6.776;2022-08-26T11:58:40;8.95;;;3.40;;
70183;SDS011;57554;51.546;6.776;2022-08-26T12:01:07;11.60;;;3.33;;
70183;SDS011;57554;51.546;6.776;2022-08-26T12:06:19;11.10;;;3.90;;
70183;SDS011;57554;51.546;6.776;2022-08-26T12:08:49;11.95;;;3.47;;
70183;SDS011;57554;51.546;6.776;2022-08-26T12:11:23;13.18;;;5.07;;
70183;SDS011;57554;51.546;6.776;2022-08-26T12:14:15;15.30;;;4.88;;
70183;SDS011;57554;51.546;6.776;2022-08-26T12:16:43;7.68;;;4.40;;
70183;SDS011;57554;51.546;6.776;2022-08-26T12:19:22;9.55;;;4.82;;
70183;SDS011;57554;51.546;6.776;2022-08-26T12:22:38;8.73;;;3.90;;
70183;SDS011;57554;51.546;6.776;2022-08-26T12:24:56;10.43;;;4.15;;
70183;SDS011;57554;51.546;6.776;2022-08-26T12:27:33;9.57;;;3.92;;
70183;SDS011;57554;51.546;6.776;2022-08-26T12:32:29;9.45;;;4.00;;
70183;SDS011;57554;51.546;6.776;2022-08-26T12:34:59;11.35;;;3.38;;
70183;SDS011;57554;51.546;6.776;2022-08-26T12:37:26;9.88;;;3.15;;
70183;SDS011;57554;51.546;6.776;2022-08-26T12:40:04;7.40;;;2.75;;
70183;SDS011;57554;51.546;6.776;2022-08-26T12:43:05;10.45;;;3.30;;
70183;SDS011;57554;51.546;6.776;2022-08-26T12:45:33;11.63;;;3.47;;
70183;SDS011;57554;51.546;6.776;2022-08-26T12:48:08;12.73;;;3.22;;
70183;SDS011;57554;51.546;6.776;2022-08-26T12:50:38;8.05;;;3.03;;
70183;SDS011;57554;51.546;6.776;2022-08-26T12:55:51;8.10;;;3.30;;
70183;SDS011;57554;51.546;6.776;2022-08-26T13:03:38;8.30;;;3.85;;
70183;SDS011;57554;51.546;6.776;2022-08-26T13:13:58;10.30;;;4.15;;
70183;SDS011;57554;51.546;6.776;2022-08-26T13:16:26;9.00;;;3.40;;
70183;SDS011;57554;51.546;6.776;2022-08-26T13:18:53;8.38;;;3.58;;
70183;SDS011;57554;51.546;6.776;2022-08-26T13:21:25;6.95;;;2.80;;
70183;SDS011;57554;51.546;6.776;2022-08-26T13:24:31;11.93;;;3.10;;
70183;SDS011;57554;51.546;6.776;2022-08-26T13:27:02;9.18;;;2.80;;
70183;SDS011;57554;51.546;6.776;2022-08-26T13:29:29;6.78;;;2.72;;
70183;SDS011;57554;51.546;6.776;2022-08-26T13:31:55;9.55;;;3.22;;
70183;SDS011;57554;51.546;6.776;2022-08-26T13:34:21;7.53;;;3.10;;
70183;SDS011;57554;51.546;6.776;2022-08-26T13:36:48;8.82;;;2.80;;
70183;SDS011;57554;51.546;6.776;2022-08-26T13:39:16;11.48;;;3.10;;
70183;SDS011;57554;51.546;6.776;2022-08-26T13:41:42;8.90;;;2.88;;
70183;SDS011;57554;51.546;6.776;2022-08-26T13:44:08;9.38;;;2.88;;
70183;SDS011;57554;51.546;6.776;2022-08-26T13:46:34;8.45;;;2.95;;
70183;SDS011;57554;51.546;6.776;2022-08-26T13:49:00;7.68;;;2.72;;
70183;SDS011;57554;51.546;6.776;2022-08-26T13:51:26;9.23;;;2.83;;
70183;SDS011;57554;51.546;6.776;2022-08-26T13:53:52;8.45;;;2.97;;
70183;SDS011;57554;51.546;6.776;2022-08-26T13:56:18;9.68;;;3.13;;
70183;SDS011;57554;51.546;6.776;2022-08-26T13:58:45;11.73;;;2.75;;
70183;SDS011;57554;51.546;6.776;2022-08-26T14:01:11;7.20;;;2.85;;
70183;SDS011;57554;51.546;6.776;2022-08-26T14:03:39;7.90;;;2.60;;
70183;SDS011;57554;51.546;6.776;2022-08-26T14:06:05;8.57;;;2.97;;
70183;SDS011;57554;51.546;6.776;2022-08-26T14:08:31;8.23;;;2.80;;
70183;SDS011;57554;51.546;6.776;2022-08-26T14:10:56;8.57;;;3.30;;
70183;SDS011;57554;51.546;6.776;2022-08-26T14:13:22;9.95;;;2.90;;
70183;SDS011;57554;51.546;6.776;2022-08-26T14:15:48;10.80;;;3.10;;
70183;SDS011;57554;51.546;6.776;2022-08-26T14:18:15;7.85;;;3.00;;
70183;SDS011;57554;51.546;6.776;2022-08-26T14:20:47;11.75;;;3.55;;
70183;SDS011;57554;51.546;6.776;2022-08-26T14:23:14;7.55;;;2.80;;
70183;SDS011;57554;51.546;6.776;2022-08-26T14:25:41;9.55;;;3.42;;
70183;SDS011;57554;51.546;6.776;2022-08-26T14:28:07;8.70;;;3.53;;
70183;SDS011;57554;51.546;6.776;2022-08-26T14:30:33;6.32;;;2.85;;
70183;SDS011;57554;51.546;6.776;2022-08-26T14:32:58;6.97;;;2.83;;
70183;SDS011;57554;51.546;6.776;2022-08-26T14:35:25;8.20;;;3.13;;
70183;SDS011;57554;51.546;6.776;2022-08-26T14:37:53;9.75;;;3.10;;
70183;SDS011;57554;51.546;6.776;2022-08-26T14:40:20;9.27;;;3.28;;
70183;SDS011;57554;51.546;6.776;2022-08-26T14:42:47;8.43;;;2.85;;
70183;SDS011;57554;51.546;6.776;2022-08-26T14:45:17;10.02;;;3.00;;
70183;SDS011;57554;51.546;6.776;2022-08-26T14:47:46;11.48;;;3.38;;
70183;SDS011;57554;51.546;6.776;2022-08-26T14:50:13;8.63;;;3.30;;
70183;SDS011;57554;51.546;6.776;2022-08-26T14:52:43;7.43;;;3.03;;
70183;SDS011;57554;51.546;6.776;2022-08-26T14:55:28;10.13;;;3.72;;
70183;SDS011;57554;51.546;6.776;2022-08-26T14:57:57;8.38;;;2.90;;
70183;SDS011;57554;51.546;6.776;2022-08-26T15:00:22;11.75;;;3.50;;
70183;SDS011;57554;51.546;6.776;2022-08-26T15:02:48;9.85;;;2.90;;
70183;SDS011;57554;51.546;6.776;2022-08-26T15:05:15;8.52;;;3.20;;
70183;SDS011;57554;51.546;6.776;2022-08-26T15:07:41;13.25;;;3.30;;
70183;SDS011;57554;51.546;6.776;2022-08-26T15:10:08;7.30;;;2.80;;
70183;SDS011;57554;51.546;6.776;2022-08-26T15:12:36;10.07;;;3.05;;
70183;SDS011;57554;51.546;6.776;2022-08-26T15:15:02;7.50;;;3.05;;
70183;SDS011;57554;51.546;6.776;2022-08-26T15:17:29;9.93;;;2.38;;
70183;SDS011;57554;51.546;6.776;2022-08-26T15:19:55;7.28;;;2.63;;
70183;SDS011;57554;51.546;6.776;2022-08-26T15:22:21;11.57;;;2.85;;
70183;SDS011;57554;51.546;6.776;2022-08-26T15:24:47;8.27;;;3.20;;
70183;SDS011;57554;51.546;6.776;2022-08-26T15:27:12;8.73;;;2.75;;
70183;SDS011;57554;51.546;6.776;2022-08-26T15:29:38;11.00;;;3.10;;
70183;SDS011;57554;51.546;6.776;2022-08-26T15:32:04;8.15;;;3.03;;
70183;SDS011;57554;51.546;6.776;2022-08-26T15:34:30;8.60;;;2.53;;
70183;SDS011;57554;51.546;6.776;2022-08-26T15:36:56;6.82;;;2.33;;
70183;SDS011;57554;51.546;6.776;2022-08-26T15:39:21;10.75;;;2.40;;
70183;SDS011;57554;51.546;6.776;2022-08-26T15:41:47;11.88;;;2.83;;
70183;SDS011;57554;51.546;6.776;2022-08-26T15:44:14;7.47;;;2.30;;
70183;SDS011;57554;51.546;6.776;2022-08-26T15:46:42;9.23;;;2.72;;
70183;SDS011;57554;51.546;6.776;2022-08-26T15:49:08;8.95;;;2.40;;
70183;SDS011;57554;51.546;6.776;2022-08-26T15:51:36;8.13;;;1.80;;
70183;SDS011;57554;51.546;6.776;2022-08-26T15:54:04;8.65;;;2.17;;
70183;SDS011;57554;51.546;6.776;2022-08-26T15:56:32;5.95;;;2.30;;
70183;SDS011;57554;51.546;6.776;2022-08-26T15:59:00;7.43;;;1.85;;
70183;SDS011;57554;51.546;6.776;2022-08-26T16:01:26;8.00;;;2.33;;
70183;SDS011;57554;51.546;6.776;2022-08-26T16:03:53;7.82;;;2.28;;
70183;SDS011;57554;51.546;6.776;2022-08-26T16:06:20;9.02;;;2.15;;
70183;SDS011;57554;51.546;6.776;2022-08-26T16:08:49;5.82;;;1.77;;
70183;SDS011;57554;51.546;6.776;2022-08-26T16:11:15;11.02;;;2.15;;
70183;SDS011;57554;51.546;6.776;2022-08-26T16:13:42;9.23;;;2.10;;